createdAt,value
2018-11-03T00:02:17.432Z,21.30
2018-11-03T00:05:29.084Z,24.40
2018-11-03T00:08:40.253Z,26.45
2018-11-03T00:11:51.907Z,24.98
2018-11-03T00:15:03.845Z,22.73
2018-11-03T00:18:15.856Z,23.42
2018-11-03T00:21:27.741Z,23.25
2018-11-03T00:24:39.600Z,21.52
2018-11-03T00:27:51.233Z,21.15
2018-11-03T00:31:02.301Z,19.65
2018-11-03T00:34:14.233Z,23.25
2018-11-03T00:37:25.910Z,26.82
2018-11-03T00:40:37.769Z,22.30
2018-11-03T00:43:49.674Z,26.85
2018-11-03T00:47:00.874Z,21.93
2018-11-03T00:50:14.451Z,24.70
2018-11-03T00:53:25.529Z,22.75
2018-11-03T00:56:37.165Z,32.20
2018-11-03T00:59:48.924Z,26.50
2018-11-03T01:02:59.891Z,23.57
2018-11-03T01:06:11.901Z,31.80
2018-11-03T01:09:23.706Z,23.35
2018-11-03T01:12:35.169Z,20.12
2018-11-03T01:15:46.663Z,26.12
2018-11-03T01:18:58.553Z,22.55
2018-11-03T01:22:10.333Z,20.50
2018-11-03T01:25:22.742Z,24.95
2018-11-03T01:28:34.099Z,28.67
2018-11-03T01:31:46.138Z,22.98
2018-11-03T01:34:58.120Z,22.75
2018-11-03T01:38:10.120Z,23.95
2018-11-03T01:41:22.165Z,26.55
2018-11-03T01:44:33.713Z,20.70
2018-11-03T01:47:45.578Z,25.68
2018-11-03T01:50:57.588Z,24.50
2018-11-03T01:54:09.441Z,29.80
2018-11-03T01:57:21.527Z,22.40
2018-11-03T02:00:33.173Z,23.50
2018-11-03T02:03:45.236Z,27.70
2018-11-03T02:06:57.107Z,27.87
2018-11-03T02:10:11.597Z,24.57
2018-11-03T02:13:22.937Z,26.65
2018-11-03T02:16:34.634Z,23.45
2018-11-03T02:19:46.524Z,26.40
2018-11-03T02:22:58.101Z,25.77
2018-11-03T02:26:10.338Z,25.82
2018-11-03T02:29:21.821Z,24.65
2018-11-03T02:32:33.812Z,23.77
2018-11-03T02:35:46.526Z,25.60
2018-11-03T02:38:58.643Z,25.43
2018-11-03T02:42:09.681Z,27.70
2018-11-03T02:45:21.660Z,24.98
2018-11-03T02:48:33.354Z,29.40
2018-11-03T02:51:45.167Z,25.20
2018-11-03T02:54:57.182Z,22.65
2018-11-03T02:58:09.088Z,20.55
2018-11-03T03:01:21.222Z,29.35
2018-11-03T03:04:32.760Z,25.60
2018-11-03T03:07:44.236Z,26.52
2018-11-03T03:10:55.622Z,23.95
2018-11-03T03:14:08.013Z,27.60
2018-11-03T03:17:19.539Z,24.72
2018-11-03T03:20:31.449Z,31.15
2018-11-03T03:23:43.363Z,30.23
2018-11-03T03:26:54.842Z,28.02
2018-11-03T03:30:07.130Z,23.20
2018-11-03T03:33:19.405Z,25.88
2018-11-03T03:36:31.254Z,34.90
2018-11-03T03:39:43.234Z,29.05
2018-11-03T03:42:55.027Z,27.15
2018-11-03T03:46:07.119Z,25.40
2018-11-03T03:49:19.024Z,23.20
2018-11-03T03:52:31.147Z,20.68
2018-11-03T03:55:43.921Z,24.40
2018-11-03T03:58:55.857Z,22.42
2018-11-03T04:02:07.861Z,30.60
2018-11-03T04:05:19.692Z,28.00
2018-11-03T04:08:31.499Z,21.27
2018-11-03T04:11:43.494Z,23.25
2018-11-03T04:14:54.996Z,25.20
2018-11-03T04:18:07.237Z,22.93
2018-11-03T04:21:22.696Z,21.65
2018-11-03T04:24:35.143Z,22.95
2018-11-03T04:27:47.116Z,21.87
2018-11-03T04:30:58.212Z,24.50
2018-11-03T04:34:09.901Z,25.10
2018-11-03T04:37:21.300Z,29.87
2018-11-03T04:40:32.677Z,26.82
2018-11-03T04:43:43.820Z,22.40
2018-11-03T04:46:55.655Z,21.75
2018-11-03T04:50:07.879Z,26.95
2018-11-03T04:53:19.714Z,30.55
2018-11-03T04:56:31.542Z,23.70
2018-11-03T04:59:43.361Z,26.23
2018-11-03T05:02:55.478Z,24.72
2018-11-03T05:06:07.001Z,22.37
2018-11-03T05:09:19.181Z,23.35
2018-11-03T05:12:30.779Z,26.00
2018-11-03T05:15:42.722Z,22.10
2018-11-03T05:18:53.950Z,25.75
2018-11-03T05:22:05.498Z,23.00
2018-11-03T05:25:17.019Z,23.47
2018-11-03T05:28:29.195Z,29.72
2018-11-03T05:31:40.574Z,23.38
2018-11-03T05:34:52.449Z,25.10
2018-11-03T05:38:04.296Z,24.45
2018-11-03T05:41:16.088Z,26.37
2018-11-03T05:44:28.829Z,30.95
2018-11-03T05:47:39.803Z,20.68
2018-11-03T05:50:50.799Z,30.65
2018-11-03T05:54:02.776Z,24.57
2018-11-03T05:57:14.528Z,25.62
2018-11-03T06:00:27.750Z,21.30
2018-11-03T06:03:39.357Z,32.88
2018-11-03T06:06:50.676Z,26.93
2018-11-03T06:10:02.357Z,23.85
2018-11-03T06:13:14.183Z,28.32
2018-11-03T06:16:25.870Z,25.32
2018-11-03T06:19:37.771Z,24.77
2018-11-03T06:22:49.300Z,22.50
2018-11-03T06:26:00.870Z,22.58
2018-11-03T06:29:12.973Z,26.33
2018-11-03T06:32:24.597Z,28.98
2018-11-03T06:35:37.120Z,23.75
2018-11-03T06:38:48.584Z,28.23
2018-11-03T06:42:00.331Z,27.00
2018-11-03T06:45:12.248Z,24.40
2018-11-03T06:48:24.160Z,24.45
2018-11-03T06:51:35.231Z,24.50
2018-11-03T06:54:47.225Z,23.90
2018-11-03T06:57:59.213Z,27.93
2018-11-03T07:01:10.998Z,33.45
2018-11-03T07:04:22.726Z,31.12
2018-11-03T07:07:33.746Z,33.20
2018-11-03T07:10:44.946Z,30.40
2018-11-03T07:13:56.567Z,31.07
2018-11-03T07:17:08.529Z,35.25
2018-11-03T07:20:20.252Z,30.95
2018-11-03T07:23:32.477Z,36.42
2018-11-03T07:26:43.885Z,27.50
2018-11-03T07:29:56.354Z,24.35
2018-11-03T07:33:07.686Z,43.40
2018-11-03T07:36:19.832Z,39.95
2018-11-03T07:39:32.148Z,35.03
2018-11-03T07:42:45.028Z,30.60
2018-11-03T07:45:57.044Z,28.98
2018-11-03T07:49:09.260Z,33.90
2018-11-03T07:52:20.938Z,36.77
2018-11-03T07:55:32.940Z,36.17
2018-11-03T07:58:44.706Z,35.43
2018-11-03T08:01:56.689Z,33.98
2018-11-03T08:05:09.738Z,33.38
2018-11-03T08:08:21.991Z,34.55
2018-11-03T08:11:33.108Z,38.23
2018-11-03T08:14:44.896Z,27.77
2018-11-03T08:17:56.953Z,32.93
2018-11-03T08:21:08.811Z,30.82
2018-11-03T08:24:21.240Z,44.03
2018-11-03T08:27:32.793Z,30.40
2018-11-03T08:30:44.538Z,39.95
2018-11-03T08:33:56.559Z,32.45
2018-11-03T08:37:08.107Z,30.55
2018-11-03T08:40:19.999Z,42.85
2018-11-03T08:43:31.770Z,33.13
2018-11-03T08:46:43.779Z,38.53
2018-11-03T08:49:55.805Z,33.92
2018-11-03T08:53:07.822Z,33.28
2018-11-03T08:56:20.208Z,33.30
2018-11-03T08:59:31.978Z,30.25
2018-11-03T09:02:44.497Z,38.75
2018-11-03T09:05:55.849Z,33.63
2018-11-03T09:09:07.982Z,33.55
2018-11-03T09:12:19.039Z,28.40
2018-11-03T09:15:30.181Z,41.60
2018-11-03T09:18:41.850Z,30.23
2018-11-03T09:22:06.979Z,31.55
2018-11-03T09:25:18.601Z,33.88
2018-11-03T09:28:29.873Z,35.85
2018-11-03T09:31:41.984Z,41.05
2018-11-03T09:34:53.662Z,31.75
2018-11-03T09:38:06.505Z,40.75
2018-11-03T09:41:18.215Z,39.65
2018-11-03T09:44:30.185Z,35.17
2018-11-03T09:47:42.352Z,36.00
2018-11-03T09:50:53.673Z,38.75
2018-11-03T09:54:05.632Z,34.75
2018-11-03T09:57:17.702Z,39.13
2018-11-03T10:00:29.759Z,29.15
2018-11-03T10:03:42.462Z,34.00
2018-11-03T10:06:54.613Z,33.92
2018-11-03T10:10:11.468Z,33.67
2018-11-03T10:13:23.080Z,35.28
2018-11-03T10:16:34.953Z,51.45
2018-11-03T10:19:46.667Z,43.68
2018-11-03T10:22:58.755Z,42.45
2018-11-03T10:26:10.799Z,32.20
2018-11-03T10:29:22.552Z,31.60
2018-11-03T10:32:33.764Z,36.53
2018-11-03T10:35:45.366Z,31.95
2018-11-03T10:38:56.892Z,34.80
2018-11-03T10:42:08.914Z,38.85
2018-11-03T10:45:20.825Z,33.92
2018-11-03T10:48:32.876Z,37.88
2018-11-03T10:51:44.561Z,44.77
2018-11-03T10:54:56.268Z,33.20
2018-11-03T10:58:08.562Z,32.65
2018-11-03T11:01:25.384Z,43.35
2018-11-03T11:04:41.743Z,34.83
2018-11-03T11:07:58.713Z,34.35
2018-11-03T11:13:20.702Z,31.33
2018-11-03T11:16:32.623Z,26.35
2018-11-03T11:19:44.584Z,26.75
2018-11-03T11:22:56.146Z,42.35
2018-11-03T11:26:08.548Z,31.23
2018-11-03T11:29:20.164Z,32.23
2018-11-03T11:32:31.856Z,38.20
2018-11-03T11:35:43.852Z,36.28
2018-11-03T11:38:55.157Z,39.30
2018-11-03T11:42:06.789Z,34.27
2018-11-03T11:45:18.616Z,37.15
2018-11-03T11:48:30.133Z,28.47
2018-11-03T11:51:41.497Z,32.17
2018-11-03T11:54:53.096Z,31.55
2018-11-03T11:58:05.286Z,37.65
2018-11-03T12:01:16.934Z,31.02
2018-11-03T12:04:28.974Z,45.65
2018-11-03T12:07:40.544Z,34.53
2018-11-03T12:10:53.134Z,33.55
2018-11-03T12:14:04.784Z,34.88
2018-11-03T12:17:16.897Z,39.23
2018-11-03T12:20:28.456Z,33.98
2018-11-03T12:23:40.306Z,46.15
2018-11-03T12:26:52.241Z,38.58
2018-11-03T12:30:04.391Z,46.53
2018-11-03T12:33:16.190Z,32.20
2018-11-03T12:36:28.098Z,39.60
2018-11-03T12:39:39.737Z,40.95
2018-11-03T12:42:50.970Z,49.65
2018-11-03T12:46:02.900Z,42.45
2018-11-03T12:49:14.853Z,38.92
2018-11-03T12:52:27.372Z,32.33
2018-11-03T12:55:38.387Z,44.33
2018-11-03T12:58:50.372Z,40.83
2018-11-03T13:02:01.974Z,39.35
2018-11-03T13:05:14.433Z,40.43
2018-11-03T13:08:26.542Z,34.35
2018-11-03T13:11:38.602Z,24.15
2018-11-03T13:14:50.419Z,37.08
2018-11-03T13:18:02.215Z,35.90
2018-11-03T13:21:14.015Z,31.57
2018-11-03T13:24:25.976Z,35.55
2018-11-03T13:27:37.197Z,35.88
2018-11-03T13:30:48.973Z,35.88
2018-11-03T13:34:00.489Z,34.03
2018-11-03T13:37:11.767Z,35.17
2018-11-03T13:40:23.631Z,34.03
2018-11-03T13:43:35.634Z,33.48
2018-11-03T13:46:47.454Z,35.05
2018-11-03T13:49:59.457Z,42.70
2018-11-03T13:53:10.792Z,47.03
2018-11-03T13:56:22.691Z,42.38
2018-11-03T13:59:34.537Z,33.83
2018-11-03T14:02:46.696Z,34.58
2018-11-03T14:05:58.574Z,41.10
2018-11-03T14:09:11.297Z,35.43
2018-11-03T14:12:22.578Z,44.75
2018-11-03T14:15:34.147Z,35.45
2018-11-03T14:18:46.429Z,37.17
2018-11-03T14:21:58.227Z,34.92
2018-11-03T14:25:11.808Z,34.48
2018-11-03T14:28:23.835Z,35.78
2018-11-03T14:31:35.614Z,36.33
2018-11-03T14:34:48.382Z,36.93
2018-11-03T14:38:00.262Z,41.15
2018-11-03T14:41:12.225Z,39.53
2018-11-03T14:44:24.198Z,39.90
2018-11-03T14:47:35.693Z,31.73
2018-11-03T14:50:47.637Z,37.38
2018-11-03T14:54:01.981Z,41.35
2018-11-03T14:57:13.112Z,32.35
2018-11-03T15:00:24.548Z,31.33
2018-11-03T15:03:36.300Z,42.53
2018-11-03T15:06:49.957Z,36.33
2018-11-03T15:10:01.165Z,35.88
2018-11-03T15:13:13.113Z,37.88
2018-11-03T15:16:24.884Z,32.95
2018-11-03T15:19:36.841Z,34.13
2018-11-03T15:22:48.903Z,34.70
2018-11-03T15:26:00.288Z,36.08
2018-11-03T15:29:12.850Z,36.85
2018-11-03T15:32:23.868Z,36.93
2018-11-03T15:35:36.411Z,39.88
2018-11-03T15:38:47.744Z,38.48
2018-11-03T15:41:59.688Z,32.30
2018-11-03T15:45:15.966Z,38.55
2018-11-03T15:48:27.711Z,34.55
2018-11-03T15:51:39.648Z,34.70
2018-11-03T15:54:51.928Z,39.20
2018-11-03T15:58:04.082Z,42.55
2018-11-03T16:01:15.279Z,46.30
2018-11-03T16:04:26.900Z,37.93
2018-11-03T16:07:38.027Z,33.45
2018-11-03T16:10:49.598Z,36.28
2018-11-03T16:14:00.679Z,39.25
2018-11-03T16:17:12.560Z,41.05
2018-11-03T16:20:24.997Z,36.13
2018-11-03T16:23:36.144Z,34.38
2018-11-03T16:26:47.773Z,35.60
2018-11-03T16:29:59.427Z,39.25
2018-11-03T16:33:12.955Z,33.45
2018-11-03T16:36:25.739Z,36.50
2018-11-03T16:39:38.212Z,41.50
2018-11-03T16:42:50.953Z,41.05
2018-11-03T16:46:02.490Z,34.43
2018-11-03T16:49:18.072Z,37.73
2018-11-03T16:52:30.343Z,29.20
2018-11-03T16:55:42.775Z,34.08
2018-11-03T16:58:54.210Z,31.68
2018-11-03T17:02:07.104Z,45.63
2018-11-03T17:05:19.834Z,35.65
2018-11-03T17:08:32.131Z,32.90
2018-11-03T17:11:48.880Z,43.73
2018-11-03T17:15:02.677Z,42.50
2018-11-03T17:18:14.914Z,47.75
2018-11-03T17:21:27.894Z,39.95
2018-11-03T17:24:39.509Z,38.95
2018-11-03T17:27:51.041Z,40.08
2018-11-03T17:31:02.810Z,39.70
2018-11-03T17:34:14.570Z,39.80
2018-11-03T17:37:34.655Z,39.75
2018-11-03T17:40:46.852Z,42.73
2018-11-03T17:43:59.660Z,43.02
2018-11-03T17:47:11.341Z,49.50
2018-11-03T17:50:23.157Z,45.30
2018-11-03T17:53:34.862Z,42.10
2018-11-03T17:56:47.468Z,38.80
2018-11-03T17:59:58.908Z,51.85
2018-11-03T18:03:10.804Z,33.00
2018-11-03T18:06:22.250Z,41.70
2018-11-03T18:09:34.268Z,41.95
2018-11-03T18:12:55.422Z,57.10
2018-11-03T18:16:08.409Z,38.50
2018-11-03T18:19:19.908Z,42.88
2018-11-03T18:22:31.739Z,44.00
2018-11-03T18:25:44.396Z,42.50
2018-11-03T18:28:57.550Z,49.35
2018-11-03T18:32:09.323Z,49.58
2018-11-03T18:35:21.606Z,37.42
2018-11-03T18:38:32.863Z,41.53
2018-11-03T18:41:44.657Z,42.30
2018-11-03T18:44:56.709Z,46.77
2018-11-03T18:48:08.991Z,48.40
2018-11-03T18:51:20.648Z,45.00
2018-11-03T18:54:32.943Z,43.38
2018-11-03T18:57:45.492Z,50.20
2018-11-03T19:00:57.140Z,46.70
2018-11-03T19:04:11.304Z,45.75
2018-11-03T19:07:23.188Z,46.60
2018-11-03T19:10:34.660Z,35.75
2018-11-03T19:13:46.677Z,46.45
2018-11-03T19:16:59.047Z,48.90
2018-11-03T19:20:14.379Z,45.25
2018-11-03T19:23:26.864Z,44.38
2018-11-03T19:26:39.156Z,44.00
2018-11-03T19:29:51.397Z,54.70
2018-11-03T19:33:03.785Z,52.08
2018-11-03T19:36:15.183Z,54.55
2018-11-03T19:39:27.321Z,55.25
2018-11-03T19:42:40.119Z,46.75
2018-11-03T19:45:52.523Z,52.67
2018-11-03T19:49:03.942Z,48.23
2018-11-03T19:52:15.680Z,44.05
2018-11-03T19:55:30.016Z,40.78
2018-11-03T19:58:41.641Z,46.58
2018-11-03T20:01:53.657Z,45.03
2018-11-03T20:05:05.718Z,46.00
2018-11-03T20:08:17.532Z,53.30
2018-11-03T20:11:30.603Z,41.15
2018-11-03T20:14:42.796Z,52.73
2018-11-03T20:17:55.158Z,49.40
2018-11-03T20:21:07.760Z,50.98
2018-11-03T20:24:20.158Z,42.95
2018-11-03T20:27:31.910Z,46.05
2018-11-03T20:30:43.812Z,46.70
2018-11-03T20:33:55.144Z,52.67
2018-11-03T20:37:08.223Z,45.45
2018-11-03T20:40:20.547Z,55.80
2018-11-03T20:43:32.542Z,56.88
2018-11-03T20:46:44.134Z,52.83
2018-11-03T20:49:56.698Z,48.08
2018-11-03T20:53:08.525Z,49.40
2018-11-03T20:56:20.411Z,55.55
2018-11-03T20:59:32.411Z,44.38
2018-11-03T21:02:45.487Z,44.95
2018-11-03T21:05:59.759Z,45.67
2018-11-03T21:09:12.967Z,48.48
2018-11-03T21:12:24.431Z,43.00
2018-11-03T21:15:35.816Z,35.33
2018-11-03T21:18:48.219Z,52.00
2018-11-03T21:22:00.842Z,50.85
2018-11-03T21:25:12.884Z,49.77
2018-11-03T21:28:24.722Z,40.50
2018-11-03T21:31:36.276Z,39.90
2018-11-03T21:34:47.949Z,48.75
2018-11-03T21:38:00.543Z,37.75
2018-11-03T21:41:13.978Z,35.52
2018-11-03T21:44:25.456Z,37.78
2018-11-03T21:47:37.655Z,39.35
2018-11-03T21:50:49.342Z,36.60
2018-11-03T21:54:01.472Z,44.93
2018-11-03T21:57:12.933Z,35.23
2018-11-03T22:00:24.317Z,37.95
2018-11-03T22:03:35.388Z,36.17
2018-11-03T22:06:47.539Z,49.63
2018-11-03T22:09:59.668Z,37.93
2018-11-03T22:13:11.542Z,43.00
2018-11-03T22:16:22.618Z,51.18
2018-11-03T22:19:37.199Z,37.83
2018-11-03T22:22:50.475Z,49.25
2018-11-03T22:26:03.986Z,39.15
2018-11-03T22:29:16.354Z,37.58
2018-11-03T22:32:28.038Z,36.90
2018-11-03T22:35:39.186Z,38.25
2018-11-03T22:38:51.367Z,36.68
2018-11-03T22:42:03.434Z,40.98
2018-11-03T22:45:16.298Z,37.70
2018-11-03T22:48:27.667Z,40.63
2018-11-03T22:51:39.489Z,48.55
2018-11-03T22:54:51.566Z,36.83
2018-11-03T22:58:26.627Z,40.85
2018-11-03T23:01:38.838Z,36.42
2018-11-03T23:04:50.288Z,33.30
2018-11-03T23:08:02.399Z,41.20
2018-11-03T23:11:14.025Z,34.90
2018-11-03T23:14:25.413Z,39.15
2018-11-03T23:17:37.162Z,47.35
2018-11-03T23:20:48.973Z,40.33
2018-11-03T23:24:00.465Z,31.82
2018-11-03T23:27:12.395Z,34.65
2018-11-03T23:30:24.255Z,37.38
2018-11-03T23:33:36.156Z,36.93
2018-11-03T23:36:48.813Z,36.53
2018-11-03T23:40:00.205Z,32.38
2018-11-03T23:43:12.279Z,30.15
2018-11-03T23:46:23.809Z,38.20
2018-11-03T23:49:35.112Z,37.63
2018-11-03T23:52:47.874Z,40.15
2018-11-03T23:55:59.609Z,32.42
2018-11-03T23:59:11.629Z,33.58
